CYTZ/YTZ METAR and TAF weather

Enter ICAO airport designator
Station Type Date Time Source
CYTZ METAR 2020/09/24 11:09 UTC NOAA

CYTZ 241109Z AUTO 10002KT 5SM BR CLR 14/13 A2991 RMK SLP129


Station Type Date Time Source
CYTZ Decoded METAR 2020/09/24 11:09 UTC NOAA

Toronto Island Airport Automated Reporting Station, Canada (CYTZ) 43-38N 079-24W
Sep 24, 2020 - 07:09 AM EDT / 2020.09.24 1109 UTC
Wind: from the E (100 degrees) at 2 MPH (2 KT):0
Visibility: 5 mile(s):0
Sky conditions: clear
Weather: mist
Temperature: 57 F (14 C)
Dew Point: 55 F (13 C)
Relative Humidity: 93%
Pressure (altimeter): 29.91 in. Hg (1012 hPa)
ob: CYTZ 241109Z AUTO 10002KT 5SM BR CLR 14/13 A2991 RMK SLP129
cycle: 11

Station Type Date Time Source
CYTZ TAF 2020/09/24 10:21 UTC NOAA

TAF
AMD TAF
AMD CYTZ 241018Z 2410/2508 VRB03KT P6SM FEW240
TEMPO 2410/2413 2SM BR
FM241700 18010KT P6SM SCT050
FM242000 21010KT P6SM BKN050
TEMPO 2420/2501 P6SM -SHRA VCTS BKN020 OVC040CB
FM250200 24007KT P6SM BKN120
FM250600 VRB03KT 6SM BR FEW003 PROB30 2506/2508 3/4SM BR BKN003
RMK FCST BASED ON AUTO OBS. NXT FCST BY 241400Z

Example: see airport list